sensor_id;sensor_type;location;lat;lon;timestamp;pressure;altitude;pressure_sealevel;temperature;humidity
67654;BME280;54791;52.364;4.648;2022-12-11T00:01:45;101130.97;;;1.40;100.00
67654;BME280;54791;52.364;4.648;2022-12-11T00:04:12;101132.72;;;1.39;100.00
67654;BME280;54791;52.364;4.648;2022-12-11T00:06:38;101129.22;;;1.36;100.00
67654;BME280;54791;52.364;4.648;2022-12-11T00:09:04;101129.25;;;1.45;100.00
67654;BME280;54791;52.364;4.648;2022-12-11T00:11:29;101127.47;;;1.35;100.00
67654;BME280;54791;52.364;4.648;2022-12-11T00:13:58;101117.00;;;1.31;100.00
67654;BME280;54791;52.364;4.648;2022-12-11T00:16:32;101123.13;;;1.37;100.00
67654;BME280;54791;52.364;4.648;2022-12-11T00:18:58;101129.22;;;1.34;100.00
67654;BME280;54791;52.364;4.648;2022-12-11T00:21:24;101124.84;;;1.33;100.00
67654;BME280;54791;52.364;4.648;2022-12-11T00:23:50;101136.16;;;1.27;100.00
67654;BME280;54791;52.364;4.648;2022-12-11T00:26:16;101129.22;;;1.29;100.00
67654;BME280;54791;52.364;4.648;2022-12-11T00:28:43;101130.06;;;1.35;100.00
67654;BME280;54791;52.364;4.648;2022-12-11T00:31:28;101124.00;;;1.42;100.00
67654;BME280;54791;52.364;4.648;2022-12-11T00:34:17;101117.94;;;1.47;100.00
67654;BME280;54791;52.364;4.648;2022-12-11T00:36:46;101122.28;;;1.45;100.00
67654;BME280;54791;52.364;4.648;2022-12-11T00:39:11;101117.00;;;1.31;100.00
67654;BME280;54791;52.364;4.648;2022-12-11T00:41:37;101115.28;;;1.40;100.00
67654;BME280;54791;52.364;4.648;2022-12-11T00:44:03;101113.53;;;1.34;100.00
67654;BME280;54791;52.364;4.648;2022-12-11T00:46:28;101110.91;;;1.36;100.00
67654;BME280;54791;52.364;4.648;2022-12-11T00:49:03;101110.06;;;1.32;100.00
67654;BME280;54791;52.364;4.648;2022-12-11T00:51:29;101109.16;;;1.30;100.00
67654;BME280;54791;52.364;4.648;2022-12-11T00:54:34;101108.31;;;1.29;100.00
67654;BME280;54791;52.364;4.648;2022-12-11T00:57:09;101111.72;;;1.13;100.00
67654;BME280;54791;52.364;4.648;2022-12-11T00:59:34;101111.69;;;1.10;100.00
67654;BME280;54791;52.364;4.648;2022-12-11T01:02:00;101102.13;;;1.12;100.00
67654;BME280;54791;52.364;4.648;2022-12-11T01:04:25;101099.50;;;1.15;100.00
67654;BME280;54791;52.364;4.648;2022-12-11T01:07:14;101094.34;;;1.29;100.00
67654;BME280;54791;52.364;4.648;2022-12-11T01:09:39;101104.78;;;1.18;100.00
67654;BME280;54791;52.364;4.648;2022-12-11T01:12:45;101102.16;;;1.18;100.00
67654;BME280;54791;52.364;4.648;2022-12-11T01:15:10;101089.06;;;1.15;100.00
67654;BME280;54791;52.364;4.648;2022-12-11T01:17:36;101096.91;;;1.12;100.00
67654;BME280;54791;52.364;4.648;2022-12-11T01:20:03;101103.03;;;1.17;100.00
67654;BME280;54791;52.364;4.648;2022-12-11T01:22:29;101103.03;;;1.17;100.00
67654;BME280;54791;52.364;4.648;2022-12-11T01:25:35;101092.56;;;1.14;100.00
67654;BME280;54791;52.364;4.648;2022-12-11T01:28:03;101101.31;;;1.25;100.00
67654;BME280;54791;52.364;4.648;2022-12-11T01:30:57;101089.16;;;1.34;100.00
67654;BME280;54791;52.364;4.648;2022-12-11T01:33:43;101098.75;;;1.36;100.00
67654;BME280;54791;52.364;4.648;2022-12-11T01:36:28;101101.34;;;1.35;100.00
67654;BME280;54791;52.364;4.648;2022-12-11T01:38:55;101097.00;;;1.40;100.00
67654;BME280;54791;52.364;4.648;2022-12-11T01:41:40;101101.38;;;1.38;100.00
67654;BME280;54791;52.364;4.648;2022-12-11T01:47:11;101094.31;;;1.21;100.00
67654;BME280;54791;52.364;4.648;2022-12-11T01:49:56;101101.34;;;1.35;100.00
67654;BME280;54791;52.364;4.648;2022-12-11T01:52:22;101101.34;;;1.35;100.00
67654;BME280;54791;52.364;4.648;2022-12-11T01:55:08;101098.75;;;1.38;100.00
67654;BME280;54791;52.364;4.648;2022-12-11T01:57:36;101105.69;;;1.34;100.00
67654;BME280;54791;52.364;4.648;2022-12-11T02:00:05;101105.69;;;1.37;100.00
67654;BME280;54791;52.364;4.648;2022-12-11T02:02:34;101103.94;;;1.28;100.00
67654;BME280;54791;52.364;4.648;2022-12-11T02:05:12;101100.44;;;1.23;100.00
67654;BME280;54791;52.364;4.648;2022-12-11T02:07:50;101101.31;;;1.22;100.00
67654;BME280;54791;52.364;4.648;2022-12-11T02:10:18;101094.34;;;1.29;100.00
67654;BME280;54791;52.364;4.648;2022-12-11T02:13:06;101084.81;;;1.39;100.00
67654;BME280;54791;52.364;4.648;2022-12-11T02:15:59;101096.13;;;1.41;100.00
67654;BME280;54791;52.364;4.648;2022-12-11T02:21:34;101090.97;;;1.53;100.00
67654;BME280;54791;52.364;4.648;2022-12-11T02:27:16;101080.47;;;1.44;100.00
67654;BME280;54791;52.364;4.648;2022-12-11T02:30:11;101078.72;;;1.46;100.00
67654;BME280;54791;52.364;4.648;2022-12-11T02:33:12;101076.13;;;1.43;100.00
67654;BME280;54791;52.364;4.648;2022-12-11T02:36:31;101074.38;;;1.39;100.00
67654;BME280;54791;52.364;4.648;2022-12-11T02:39:15;101072.59;;;1.30;100.00
67654;BME280;54791;52.364;4.648;2022-12-11T02:41:46;101077.81;;;1.28;100.00
67654;BME280;54791;52.364;4.648;2022-12-11T02:44:33;101079.56;;;1.36;100.00
67654;BME280;54791;52.364;4.648;2022-12-11T02:47:10;101071.75;;;1.43;100.00
67654;BME280;54791;52.364;4.648;2022-12-11T02:50:15;101069.13;;;1.42;100.00
67654;BME280;54791;52.364;4.648;2022-12-11T02:53:02;101081.34;;;1.47;100.00
67654;BME280;54791;52.364;4.648;2022-12-11T02:55:49;101073.53;;;1.52;100.00
67654;BME280;54791;52.364;4.648;2022-12-11T02:58:29;101071.81;;;1.54;100.00
67654;BME280;54791;52.364;4.648;2022-12-11T03:01:13;101067.38;;;1.39;100.00
67654;BME280;54791;52.364;4.648;2022-12-11T03:03:38;101057.81;;;1.34;100.00
67654;BME280;54791;52.364;4.648;2022-12-11T03:06:15;101062.19;;;1.44;100.00
67654;BME280;54791;52.364;4.648;2022-12-11T03:08:59;101059.56;;;1.41;100.00
67654;BME280;54791;52.364;4.648;2022-12-11T03:11:24;101062.19;;;1.45;100.00
67654;BME280;54791;52.364;4.648;2022-12-11T03:14:10;101061.28;;;1.34;100.00
67654;BME280;54791;52.364;4.648;2022-12-11T03:17:18;101064.78;;;1.36;100.00
67654;BME280;54791;52.364;4.648;2022-12-11T03:20:44;101065.63;;;1.40;100.00
67654;BME280;54791;52.364;4.648;2022-12-11T03:25:51;101053.47;;;1.40;100.00
67654;BME280;54791;52.364;4.648;2022-12-11T03:28:31;101056.91;;;1.28;100.00
67654;BME280;54791;52.364;4.648;2022-12-11T03:31:37;101051.69;;;1.28;100.00
67654;BME280;54791;52.364;4.648;2022-12-11T03:34:29;101056.03;;;1.25;100.00
67654;BME280;54791;52.364;4.648;2022-12-11T03:37:09;101062.09;;;1.16;100.00
67654;BME280;54791;52.364;4.648;2022-12-11T03:39:57;101052.50;;;1.10;100.00
67654;BME280;54791;52.364;4.648;2022-12-11T03:43:02;101053.34;;;1.09;100.00
67654;BME280;54791;52.364;4.648;2022-12-11T03:45:39;101061.19;;;1.09;100.00
67654;BME280;54791;52.364;4.648;2022-12-11T03:48:07;101058.59;;;1.09;100.00
67654;BME280;54791;52.364;4.648;2022-12-11T03:50:52;101058.56;;;1.02;100.00
67654;BME280;54791;52.364;4.648;2022-12-11T03:53:19;101055.94;;;1.02;100.00
67654;BME280;54791;52.364;4.648;2022-12-11T03:55:59;101062.06;;;1.07;100.00
67654;BME280;54791;52.364;4.648;2022-12-11T03:58:25;101051.56;;;1.01;100.00
67654;BME280;54791;52.364;4.648;2022-12-11T04:00:50;101045.53;;;1.08;100.00
67654;BME280;54791;52.364;4.648;2022-12-11T04:03:16;101046.38;;;1.07;100.00
67654;BME280;54791;52.364;4.648;2022-12-11T04:05:50;101054.19;;;0.99;100.00
67654;BME280;54791;52.364;4.648;2022-12-11T04:08:34;101051.59;;;1.07;100.00
67654;BME280;54791;52.364;4.648;2022-12-11T04:11:20;101047.28;;;1.10;100.00
67654;BME280;54791;52.364;4.648;2022-12-11T04:14:13;101053.31;;;1.02;100.00
67654;BME280;54791;52.364;4.648;2022-12-11T04:17:15;101055.94;;;1.05;100.00
67654;BME280;54791;52.364;4.648;2022-12-11T04:20:00;101059.44;;;1.04;100.00
67654;BME280;54791;52.364;4.648;2022-12-11T04:22:46;101056.84;;;1.07;100.00
67654;BME280;54791;52.364;4.648;2022-12-11T04:25:31;101047.28;;;1.12;100.00
67654;BME280;54791;52.364;4.648;2022-12-11T04:28:16;101056.00;;;1.17;100.00
67654;BME280;54791;52.364;4.648;2022-12-11T04:31:02;101062.09;;;1.16;100.00
67654;BME280;54791;52.364;4.648;2022-12-11T04:33:28;101056.88;;;1.14;100.00
67654;BME280;54791;52.364;4.648;2022-12-11T04:35:59;101052.50;;;1.15;100.00
67654;BME280;54791;52.364;4.648;2022-12-11T04:38:34;101052.50;;;1.15;100.00
67654;BME280;54791;52.364;4.648;2022-12-11T04:41:03;101044.66;;;1.13;100.00
67654;BME280;54791;52.364;4.648;2022-12-11T04:43:46;101046.38;;;1.10;100.00
67654;BME280;54791;52.364;4.648;2022-12-11T04:46:19;101043.81;;;1.11;100.00
67654;BME280;54791;52.364;4.648;2022-12-11T04:49:03;101043.84;;;1.19;100.00
67654;BME280;54791;52.364;4.648;2022-12-11T04:51:28;101045.56;;;1.25;100.00
67654;BME280;54791;52.364;4.648;2022-12-11T04:53:54;101038.63;;;1.28;100.00
67654;BME280;54791;52.364;4.648;2022-12-11T04:56:20;101030.78;;;1.19;100.00
67654;BME280;54791;52.364;4.648;2022-12-11T04:58:49;101035.09;;;1.15;100.00
67654;BME280;54791;52.364;4.648;2022-12-11T05:01:17;101033.38;;;1.22;100.00
67654;BME280;54791;52.364;4.648;2022-12-11T05:04:21;101042.97;;;1.28;100.00
67654;BME280;54791;52.364;4.648;2022-12-11T05:06:49;101043.84;;;1.35;100.00
67654;BME280;54791;52.364;4.648;2022-12-11T05:09:15;101039.47;;;1.23;100.00
67654;BME280;54791;52.364;4.648;2022-12-11T05:11:40;101046.41;;;1.16;100.00
67654;BME280;54791;52.364;4.648;2022-12-11T05:14:06;101055.13;;;1.20;100.00
67654;BME280;54791;52.364;4.648;2022-12-11T05:16:32;101045.56;;;1.20;100.00
67654;BME280;54791;52.364;4.648;2022-12-11T05:19:00;101042.97;;;1.25;100.00
67654;BME280;54791;52.364;4.648;2022-12-11T05:21:35;101051.72;;;1.39;100.00
67654;BME280;54791;52.364;4.648;2022-12-11T05:24:01;101050.81;;;1.23;100.00
67654;BME280;54791;52.364;4.648;2022-12-11T05:26:26;101049.94;;;1.24;100.00
67654;BME280;54791;52.364;4.648;2022-12-11T05:29:12;101044.66;;;1.15;100.00
67654;BME280;54791;52.364;4.648;2022-12-11T05:31:37;101040.31;;;1.19;100.00
67654;BME280;54791;52.364;4.648;2022-12-11T05:34:03;101044.66;;;1.10;100.00
67654;BME280;54791;52.364;4.648;2022-12-11T05:36:48;101046.41;;;1.13;100.00
67654;BME280;54791;52.364;4.648;2022-12-11T05:39:14;101039.47;;;1.21;100.00
67654;BME280;54791;52.364;4.648;2022-12-11T05:41:40;101035.13;;;1.22;100.00
67654;BME280;54791;52.364;4.648;2022-12-11T05:44:06;101037.72;;;1.19;100.00
67654;BME280;54791;52.364;4.648;2022-12-11T05:46:31;101030.75;;;1.18;100.00
67654;BME280;54791;52.364;4.648;2022-12-11T05:49:17;101026.44;;;1.29;100.00
67654;BME280;54791;52.364;4.648;2022-12-11T05:51:43;101021.22;;;1.34;100.00
67654;BME280;54791;52.364;4.648;2022-12-11T05:54:48;101021.19;;;1.29;100.00
67654;BME280;54791;52.364;4.648;2022-12-11T05:57:26;101008.09;;;1.12;100.00
67654;BME280;54791;52.364;4.648;2022-12-11T06:00:01;101008.97;;;1.09;100.00
67654;BME280;54791;52.364;4.648;2022-12-11T06:02:26;101012.47;;;1.21;100.00
67654;BME280;54791;52.364;4.648;2022-12-11T06:04:52;101016.78;;;1.11;100.00
67654;BME280;54791;52.364;4.648;2022-12-11T06:07:18;101014.19;;;1.08;100.00
67654;BME280;54791;52.364;4.648;2022-12-11T06:09:46;101012.47;;;1.18;100.00
67654;BME280;54791;52.364;4.648;2022-12-11T06:12:15;101009.84;;;1.11;100.00
67654;BME280;54791;52.364;4.648;2022-12-11T06:15:00;101008.94;;;1.05;100.00
67654;BME280;54791;52.364;4.648;2022-12-11T06:17:46;101014.13;;;0.94;100.00
67654;BME280;54791;52.364;4.648;2022-12-11T06:20:11;101013.28;;;1.01;100.00
67654;BME280;54791;52.364;4.648;2022-12-11T06:22:37;101017.63;;;1.02;100.00
67654;BME280;54791;52.364;4.648;2022-12-11T06:25:03;101013.28;;;1.01;100.00
67654;BME280;54791;52.364;4.648;2022-12-11T06:27:28;101017.63;;;1.01;100.00
67654;BME280;54791;52.364;4.648;2022-12-11T06:29:54;101012.44;;;1.04;100.00
67654;BME280;54791;52.364;4.648;2022-12-11T06:32:40;101010.72;;;1.09;100.00
67654;BME280;54791;52.364;4.648;2022-12-11T06:35:14;101017.66;;;1.08;100.00
67654;BME280;54791;52.364;4.648;2022-12-11T06:37:49;101006.34;;;1.12;100.00
67654;BME280;54791;52.364;4.648;2022-12-11T06:40:15;101009.81;;;1.10;100.00
67654;BME280;54791;52.364;4.648;2022-12-11T06:42:40;101011.59;;;1.14;100.00
67654;BME280;54791;52.364;4.648;2022-12-11T06:45:10;101011.56;;;1.08;100.00
67654;BME280;54791;52.364;4.648;2022-12-11T06:47:35;101015.94;;;1.12;100.00
67654;BME280;54791;52.364;4.648;2022-12-11T06:50:21;101022.03;;;1.14;100.00
67654;BME280;54791;52.364;4.648;2022-12-11T06:53:06;101018.53;;;1.15;100.00
67654;BME280;54791;52.364;4.648;2022-12-11T06:55:52;101025.53;;;1.24;100.00
67654;BME280;54791;52.364;4.648;2022-12-11T06:58:38;101028.16;;;1.19;100.00
67654;BME280;54791;52.364;4.648;2022-12-11T07:01:32;101031.59;;;1.15;100.00
67654;BME280;54791;52.364;4.648;2022-12-11T07:04:01;101035.97;;;1.18;100.00
67654;BME280;54791;52.364;4.648;2022-12-11T07:06:27;101033.38;;;1.19;100.00
67654;BME280;54791;52.364;4.648;2022-12-11T07:08:53;101035.13;;;1.22;100.00
67654;BME280;54791;52.364;4.648;2022-12-11T07:11:19;101038.63;;;1.31;100.00
67654;BME280;54791;52.364;4.648;2022-12-11T07:13:45;101041.25;;;1.38;100.00
67654;BME280;54791;52.364;4.648;2022-12-11T07:16:31;101045.59;;;1.37;100.00
67654;BME280;54791;52.364;4.648;2022-12-11T07:18:56;101049.97;;;1.47;100.00
67654;BME280;54791;52.364;4.648;2022-12-11T07:21:22;101048.25;;;1.46;100.00
67654;BME280;54791;52.364;4.648;2022-12-11T07:24:08;101059.59;;;1.53;100.00
67654;BME280;54791;52.364;4.648;2022-12-11T07:26:53;101059.59;;;1.52;100.00
67654;BME280;54791;52.364;4.648;2022-12-11T07:29:18;101055.22;;;1.52;100.00
67654;BME280;54791;52.364;4.648;2022-12-11T07:31:44;101052.63;;;1.49;100.00
67654;BME280;54791;52.364;4.648;2022-12-11T07:34:32;101057.81;;;1.35;100.00
67654;BME280;54791;52.364;4.648;2022-12-11T07:36:58;101049.13;;;1.50;100.00
67654;BME280;54791;52.364;4.648;2022-12-11T07:40:03;101051.78;;;1.59;100.00
67654;BME280;54791;52.364;4.648;2022-12-11T07:42:49;101042.16;;;1.49;100.00
67654;BME280;54791;52.364;4.648;2022-12-11T07:45:14;101042.16;;;1.44;100.00
67654;BME280;54791;52.364;4.648;2022-12-11T07:47:49;101044.78;;;1.51;100.00
67654;BME280;54791;52.364;4.648;2022-12-11T07:50:15;101043.00;;;1.43;100.00
67654;BME280;54791;52.364;4.648;2022-12-11T07:53:00;101052.59;;;1.47;100.00
67654;BME280;54791;52.364;4.648;2022-12-11T07:55:27;101050.00;;;1.55;100.00
67654;BME280;54791;52.364;4.648;2022-12-11T07:57:52;101057.84;;;1.55;100.00
67654;BME280;54791;52.364;4.648;2022-12-11T08:00:38;101053.50;;;1.57;100.00
67654;BME280;54791;52.364;4.648;2022-12-11T08:03:32;101046.53;;;1.55;100.00
67654;BME280;54791;52.364;4.648;2022-12-11T08:05:58;101046.53;;;1.59;100.00
67654;BME280;54791;52.364;4.648;2022-12-11T08:09:06;101055.22;;;1.54;100.00
67654;BME280;54791;52.364;4.648;2022-12-11T08:11:35;101056.97;;;1.55;100.00
67654;BME280;54791;52.364;4.648;2022-12-11T08:14:10;101060.44;;;1.54;100.00
67654;BME280;54791;52.364;4.648;2022-12-11T08:16:55;101059.59;;;1.53;100.00
67654;BME280;54791;52.364;4.648;2022-12-11T08:19:40;101062.19;;;1.48;100.00
67654;BME280;54791;52.364;4.648;2022-12-11T08:22:26;101060.44;;;1.43;100.00
67654;BME280;54791;52.364;4.648;2022-12-11T08:25:20;101066.56;;;1.54;100.00
67654;BME280;54791;52.364;4.648;2022-12-11T08:27:46;101063.94;;;1.53;100.00
67654;BME280;54791;52.364;4.648;2022-12-11T08:30:21;101067.41;;;1.47;100.00
67654;BME280;54791;52.364;4.648;2022-12-11T08:32:46;101069.16;;;1.53;100.00
67654;BME280;54791;52.364;4.648;2022-12-11T08:35:12;101073.56;;;1.57;100.00
67654;BME280;54791;52.364;4.648;2022-12-11T08:37:46;101070.91;;;1.49;100.00
67654;BME280;54791;52.364;4.648;2022-12-11T08:40:12;101070.03;;;1.44;100.00
67654;BME280;54791;52.364;4.648;2022-12-11T08:42:40;101067.41;;;1.47;100.00
67654;BME280;54791;52.364;4.648;2022-12-11T08:45:07;101071.78;;;1.50;100.00
67654;BME280;54791;52.364;4.648;2022-12-11T08:47:33;101072.59;;;1.35;100.00
67654;BME280;54791;52.364;4.648;2022-12-11T08:49:59;101066.50;;;1.36;100.00
67654;BME280;54791;52.364;4.648;2022-12-11T08:52:44;101068.28;;;1.46;100.00
67654;BME280;54791;52.364;4.648;2022-12-11T08:55:32;101066.63;;;1.77;100.00
67654;BME280;54791;52.364;4.648;2022-12-11T08:58:07;101071.78;;;1.59;100.00
67654;BME280;54791;52.364;4.648;2022-12-11T09:00:33;101073.56;;;1.71;100.00
67654;BME280;54791;52.364;4.648;2022-12-11T09:02:59;101071.81;;;1.73;100.00
67654;BME280;54791;52.364;4.648;2022-12-11T09:05:27;101064.84;;;1.70;100.00
67654;BME280;54791;52.364;4.648;2022-12-11T09:07:53;101067.44;;;1.56;100.00
67654;BME280;54791;52.364;4.648;2022-12-11T09:10:18;101069.19;;;1.63;100.00
67654;BME280;54791;52.364;4.648;2022-12-11T09:12:44;101065.69;;;1.58;100.00
67654;BME280;54791;52.364;4.648;2022-12-11T09:15:13;101065.69;;;1.52;100.00
67654;BME280;54791;52.364;4.648;2022-12-11T09:17:58;101059.59;;;1.52;100.00
67654;BME280;54791;52.364;4.648;2022-12-11T09:21:04;101063.09;;;1.57;100.00
67654;BME280;54791;52.364;4.648;2022-12-11T09:23:30;101056.97;;;1.50;100.00
67654;BME280;54791;52.364;4.648;2022-12-11T09:26:06;101050.00;;;1.54;100.00
67654;BME280;54791;52.364;4.648;2022-12-11T09:28:32;101057.88;;;1.74;100.00
67654;BME280;54791;52.364;4.648;2022-12-11T09:30:58;101051.78;;;1.73;100.00
67654;BME280;54791;52.364;4.648;2022-12-11T09:33:24;101054.41;;;1.70;100.00
67654;BME280;54791;52.364;4.648;2022-12-11T09:36:12;101054.38;;;1.53;100.00
67654;BME280;54791;52.364;4.648;2022-12-11T09:38:41;101056.97;;;1.55;100.00
67654;BME280;54791;52.364;4.648;2022-12-11T09:44:29;101048.25;;;1.46;100.00
67654;BME280;54791;52.364;4.648;2022-12-11T09:46:59;101051.78;;;1.69;100.00
67654;BME280;54791;52.364;4.648;2022-12-11T09:49:40;101044.78;;;1.55;100.00
67654;BME280;54791;52.364;4.648;2022-12-11T09:55:21;101042.16;;;1.44;100.00
67654;BME280;54791;52.364;4.648;2022-12-11T10:01:55;101039.50;;;1.27;100.00
67654;BME280;54791;52.364;4.648;2022-12-11T10:07:55;101042.19;;;1.60;100.00
67654;BME280;54791;52.364;4.648;2022-12-11T10:10:25;101036.97;;;1.81;100.00
67654;BME280;54791;52.364;4.648;2022-12-11T10:13:06;101047.44;;;1.98;100.00
67654;BME280;54791;52.364;4.648;2022-12-11T10:15:42;101044.84;;;1.88;100.00
67654;BME280;54791;52.364;4.648;2022-12-11T10:18:20;101043.09;;;1.77;100.00
67654;BME280;54791;52.364;4.648;2022-12-11T10:21:07;101038.72;;;1.70;100.00
67654;BME280;54791;52.364;4.648;2022-12-11T10:23:45;101042.22;;;1.72;100.00
67654;BME280;54791;52.364;4.648;2022-12-11T10:26:17;101037.84;;;1.82;100.00
67654;BME280;54791;52.364;4.648;2022-12-11T10:28:43;101034.38;;;1.72;100.00
67654;BME280;54791;52.364;4.648;2022-12-11T10:31:27;101031.75;;;1.72;100.00
67654;BME280;54791;52.364;4.648;2022-12-11T10:34:39;101027.41;;;1.93;100.00
67654;BME280;54791;52.364;4.648;2022-12-11T10:37:02;101031.75;;;1.91;100.00
67654;BME280;54791;52.364;4.648;2022-12-11T10:39:28;101026.50;;;1.83;100.00
67654;BME280;54791;52.364;4.648;2022-12-11T10:41:57;101026.53;;;1.89;100.00
67654;BME280;54791;52.364;4.648;2022-12-11T10:44:32;101030.00;;;2.07;100.00
67654;BME280;54791;52.364;4.648;2022-12-11T10:47:14;101017.78;;;2.18;100.00
67654;BME280;54791;52.364;4.648;2022-12-11T10:49:55;101026.53;;;2.05;100.00
67654;BME280;54791;52.364;4.648;2022-12-11T10:52:27;101026.53;;;2.12;100.00
67654;BME280;54791;52.364;4.648;2022-12-11T10:55:02;101020.38;;;2.21;100.00
67654;BME280;54791;52.364;4.648;2022-12-11T10:58:01;101021.28;;;1.89;100.00
67654;BME280;54791;52.364;4.648;2022-12-11T11:00:40;101016.06;;;2.05;100.00
67654;BME280;54791;52.364;4.648;2022-12-11T11:03:26;101016.03;;;1.86;100.00
67654;BME280;54791;52.364;4.648;2022-12-11T11:08:43;101006.44;;;2.28;100.00
67654;BME280;54791;52.364;4.648;2022-12-11T11:11:36;101005.56;;;2.33;100.00
67654;BME280;54791;52.364;4.648;2022-12-11T11:14:22;101009.94;;;1.96;100.00
67654;BME280;54791;52.364;4.648;2022-12-11T11:16:54;101001.22;;;2.07;100.00
67654;BME280;54791;52.364;4.648;2022-12-11T11:19:30;101002.09;;;2.13;100.00
67654;BME280;54791;52.364;4.648;2022-12-11T11:22:04;100998.63;;;1.97;100.00
67654;BME280;54791;52.364;4.648;2022-12-11T11:24:38;100994.25;;;2.10;100.00
67654;BME280;54791;52.364;4.648;2022-12-11T11:27:39;100997.72;;;2.23;100.00
67654;BME280;54791;52.364;4.648;2022-12-11T11:30:38;101006.44;;;2.41;100.00
67654;BME280;54791;52.364;4.648;2022-12-11T11:33:21;101005.56;;;2.31;100.00
67654;BME280;54791;52.364;4.648;2022-12-11T11:35:57;101003.84;;;2.08;100.00
67654;BME280;54791;52.364;4.648;2022-12-11T11:38:44;101005.59;;;2.05;100.00
67654;BME280;54791;52.364;4.648;2022-12-11T11:41:16;100998.59;;;1.99;100.00
67654;BME280;54791;52.364;4.648;2022-12-11T11:43:49;100993.38;;;2.10;100.00
67654;BME280;54791;52.364;4.648;2022-12-11T11:46:41;100992.50;;;2.02;100.00
67654;BME280;54791;52.364;4.648;2022-12-11T11:52:00;100992.50;;;2.16;100.00
67654;BME280;54791;52.364;4.648;2022-12-11T11:54:38;100992.50;;;2.08;100.00
67654;BME280;54791;52.364;4.648;2022-12-11T11:57:14;101000.38;;;1.88;100.00
67654;BME280;54791;52.364;4.648;2022-12-11T11:59:49;100998.59;;;2.07;100.00
67654;BME280;54791;52.364;4.648;2022-12-11T12:02:17;100997.72;;;2.16;100.00
67654;BME280;54791;52.364;4.648;2022-12-11T12:04:44;101003.84;;;2.07;100.00
67654;BME280;54791;52.364;4.648;2022-12-11T12:13:24;100992.53;;;1.97;100.00
67654;BME280;54791;52.364;4.648;2022-12-11T12:16:41;100986.44;;;1.93;100.00
67654;BME280;54791;52.364;4.648;2022-12-11T12:23:06;100989.91;;;1.89;100.00
67654;BME280;54791;52.364;4.648;2022-12-11T12:25:39;100991.63;;;2.10;100.00
67654;BME280;54791;52.364;4.648;2022-12-11T12:28:32;100985.56;;;1.94;100.00
67654;BME280;54791;52.364;4.648;2022-12-11T12:31:23;100987.28;;;2.02;100.00
67654;BME280;54791;52.364;4.648;2022-12-11T12:37:48;100989.03;;;2.03;100.00
67654;BME280;54791;52.364;4.648;2022-12-11T12:43:03;100991.66;;;2.00;100.00
67654;BME280;54791;52.364;4.648;2022-12-11T12:45:42;100987.28;;;1.92;100.00
67654;BME280;54791;52.364;4.648;2022-12-11T12:48:11;100990.78;;;1.96;100.00
67654;BME280;54791;52.364;4.648;2022-12-11T12:50:43;100989.91;;;1.92;100.00
67654;BME280;54791;52.364;4.648;2022-12-11T12:53:23;100986.44;;;1.84;100.00
67654;BME280;54791;52.364;4.648;2022-12-11T12:56:20;100970.72;;;1.87;100.00
67654;BME280;54791;52.364;4.648;2022-12-11T12:59:24;100980.31;;;2.02;100.00
67654;BME280;54791;52.364;4.648;2022-12-11T13:02:15;100968.97;;;2.00;100.00
67654;BME280;54791;52.364;4.648;2022-12-11T13:04:43;100970.72;;;2.07;100.00
67654;BME280;54791;52.364;4.648;2022-12-11T13:07:24;100973.34;;;2.00;100.00
67654;BME280;54791;52.364;4.648;2022-12-11T13:10:33;100971.59;;;2.06;100.00
67654;BME280;54791;52.364;4.648;2022-12-11T13:13:04;100963.72;;;2.11;100.00
67654;BME280;54791;52.364;4.648;2022-12-11T13:15:42;100957.66;;;2.01;100.00
67654;BME280;54791;52.364;4.648;2022-12-11T13:18:33;100962.88;;;2.09;100.00
67654;BME280;54791;52.364;4.648;2022-12-11T13:21:00;100962.84;;;2.12;100.00
67654;BME280;54791;52.364;4.648;2022-12-11T13:23:29;100959.34;;;2.16;100.00
67654;BME280;54791;52.364;4.648;2022-12-11T13:26:01;100961.09;;;2.22;100.00
67654;BME280;54791;52.364;4.648;2022-12-11T13:33:53;100966.34;;;2.20;100.00
67654;BME280;54791;52.364;4.648;2022-12-11T13:36:32;100965.47;;;2.24;100.00
67654;BME280;54791;52.364;4.648;2022-12-11T13:39:25;100966.31;;;2.23;100.00
67654;BME280;54791;52.364;4.648;2022-12-11T13:41:51;100976.81;;;2.08;100.00
67654;BME280;54791;52.364;4.648;2022-12-11T13:44:24;100973.28;;;2.26;100.00
67654;BME280;54791;52.364;4.648;2022-12-11T13:46:56;100969.81;;;2.08;100.00
67654;BME280;54791;52.364;4.648;2022-12-11T13:49:29;100980.31;;;1.91;100.00
67654;BME280;54791;52.364;4.648;2022-12-11T13:51:59;100975.06;;;2.01;100.00
67654;BME280;54791;52.364;4.648;2022-12-11T13:54:27;100981.19;;;2.09;100.00
67654;BME280;54791;52.364;4.648;2022-12-11T13:57:15;100977.69;;;1.97;100.00
67654;BME280;54791;52.364;4.648;2022-12-11T13:59:46;100982.94;;;1.94;100.00
67654;BME280;54791;52.364;4.648;2022-12-11T14:02:18;100983.81;;;1.92;100.00
67654;BME280;54791;52.364;4.648;2022-12-11T14:04:48;100981.16;;;2.04;100.00
67654;BME280;54791;52.364;4.648;2022-12-11T14:07:21;100982.94;;;1.94;100.00
67654;BME280;54791;52.364;4.648;2022-12-11T14:09:48;100980.31;;;1.91;100.00
67654;BME280;54791;52.364;4.648;2022-12-11T14:12:17;100979.44;;;2.05;100.00
67654;BME280;54791;52.364;4.648;2022-12-11T14:14:57;100989.03;;;1.96;100.00
67654;BME280;54791;52.364;4.648;2022-12-11T14:17:33;100982.91;;;2.01;100.00
67654;BME280;54791;52.364;4.648;2022-12-11T14:20:02;100982.94;;;1.94;100.00
67654;BME280;54791;52.364;4.648;2022-12-11T14:22:31;100986.44;;;1.90;100.00
67654;BME280;54791;52.364;4.648;2022-12-11T14:25:00;100984.66;;;2.02;100.00
67654;BME280;54791;52.364;4.648;2022-12-11T14:27:28;100985.53;;;2.05;100.00
67654;BME280;54791;52.364;4.648;2022-12-11T14:29:54;100988.13;;;2.13;100.00
67654;BME280;54791;52.364;4.648;2022-12-11T14:32:43;100978.59;;;1.98;100.00